Terminal Aerodrome Forecast
Issued by NWS

Home | Current Version | Previous Version | Graphics & Text | Print | Product List | Glossary On
Versions: 1 2 3 4 5 6 7 8 9 10 11 12 13 14 15 16 17 18
000
FTUS43 KMPX 242300
TAFRNH
TAF
KRNH 242329Z 2500/2524 16009KT P6SM OVC250
     FM250100 15005KT P6SM FEW060
     FM250600 15007KT P6SM SCT035 BKN060 PROB30 2509/2514 4SM -TSRA
      BR OVC035CB
     FM251400 18010KT P6SM SCT020 BKN040
     FM252100 21006KT P6SM BKN040=

USA.gov is the U.S. government's official web portal to all federal, state and local government web resources and services.